sensor_id;sensor_type;location;lat;lon;timestamp;temperature;humidity
14397;DHT22;50653;47.810;13.022;2023-04-16T00:00:33;6.80;99.90
14397;DHT22;50653;47.810;13.022;2023-04-16T00:02:58;6.90;99.90
14397;DHT22;50653;47.810;13.022;2023-04-16T00:05:24;6.90;99.90
14397;DHT22;50653;47.810;13.022;2023-04-16T00:07:50;6.90;99.90
14397;DHT22;50653;47.810;13.022;2023-04-16T00:10:16;6.90;99.90
14397;DHT22;50653;47.810;13.022;2023-04-16T00:12:42;6.90;99.90
14397;DHT22;50653;47.810;13.022;2023-04-16T00:15:08;6.90;99.90
14397;DHT22;50653;47.810;13.022;2023-04-16T00:17:33;6.90;99.90
14397;DHT22;50653;47.810;13.022;2023-04-16T00:19:59;6.90;99.90
14397;DHT22;50653;47.810;13.022;2023-04-16T00:22:24;6.90;99.90
14397;DHT22;50653;47.810;13.022;2023-04-16T00:24:50;6.90;99.90
14397;DHT22;50653;47.810;13.022;2023-04-16T00:27:17;6.90;99.90
14397;DHT22;50653;47.810;13.022;2023-04-16T00:29:43;6.90;99.90
14397;DHT22;50653;47.810;13.022;2023-04-16T00:32:08;6.80;99.90
14397;DHT22;50653;47.810;13.022;2023-04-16T00:34:34;6.90;99.90
14397;DHT22;50653;47.810;13.022;2023-04-16T00:37:00;6.80;99.90
14397;DHT22;50653;47.810;13.022;2023-04-16T00:39:26;6.80;99.90
14397;DHT22;50653;47.810;13.022;2023-04-16T00:41:51;6.80;99.90
14397;DHT22;50653;47.810;13.022;2023-04-16T00:44:17;6.80;99.90
14397;DHT22;50653;47.810;13.022;2023-04-16T00:46:43;6.80;99.90
14397;DHT22;50653;47.810;13.022;2023-04-16T00:49:09;6.80;99.90
14397;DHT22;50653;47.810;13.022;2023-04-16T00:51:35;6.70;99.90
14397;DHT22;50653;47.810;13.022;2023-04-16T00:54:02;6.80;99.90
14397;DHT22;50653;47.810;13.022;2023-04-16T00:56:29;6.80;99.90
14397;DHT22;50653;47.810;13.022;2023-04-16T00:58:55;6.80;99.90
14397;DHT22;50653;47.810;13.022;2023-04-16T01:01:21;6.80;99.90
14397;DHT22;50653;47.810;13.022;2023-04-16T01:03:48;6.80;99.90
14397;DHT22;50653;47.810;13.022;2023-04-16T01:06:16;6.80;99.90
14397;DHT22;50653;47.810;13.022;2023-04-16T01:08:42;6.80;99.90
14397;DHT22;50653;47.810;13.022;2023-04-16T01:11:09;6.80;99.90
14397;DHT22;50653;47.810;13.022;2023-04-16T01:13:36;6.80;99.90
14397;DHT22;50653;47.810;13.022;2023-04-16T01:16:09;6.80;99.90
14397;DHT22;50653;47.810;13.022;2023-04-16T01:18:35;6.80;99.90
14397;DHT22;50653;47.810;13.022;2023-04-16T01:21:01;6.80;99.90
14397;DHT22;50653;47.810;13.022;2023-04-16T01:23:27;6.80;99.90
14397;DHT22;50653;47.810;13.022;2023-04-16T01:25:53;6.70;99.90
14397;DHT22;50653;47.810;13.022;2023-04-16T01:28:18;6.70;99.90
14397;DHT22;50653;47.810;13.022;2023-04-16T01:30:44;6.70;99.90
14397;DHT22;50653;47.810;13.022;2023-04-16T01:33:36;6.70;99.90
14397;DHT22;50653;47.810;13.022;2023-04-16T01:36:02;6.70;99.90
14397;DHT22;50653;47.810;13.022;2023-04-16T01:38:28;6.70;99.90
14397;DHT22;50653;47.810;13.022;2023-04-16T01:40:57;6.70;99.90
14397;DHT22;50653;47.810;13.022;2023-04-16T01:43:24;6.60;99.90
14397;DHT22;50653;47.810;13.022;2023-04-16T01:45:50;6.70;99.90
14397;DHT22;50653;47.810;13.022;2023-04-16T01:48:16;6.70;99.90
14397;DHT22;50653;47.810;13.022;2023-04-16T01:50:42;6.70;99.90
14397;DHT22;50653;47.810;13.022;2023-04-16T01:53:07;6.70;99.90
14397;DHT22;50653;47.810;13.022;2023-04-16T01:55:34;6.60;99.90
14397;DHT22;50653;47.810;13.022;2023-04-16T01:57:59;6.60;99.90
14397;DHT22;50653;47.810;13.022;2023-04-16T02:00:29;6.70;99.90
14397;DHT22;50653;47.810;13.022;2023-04-16T02:02:55;6.60;99.90
14397;DHT22;50653;47.810;13.022;2023-04-16T02:05:25;6.60;99.90
14397;DHT22;50653;47.810;13.022;2023-04-16T02:07:51;6.50;99.90
14397;DHT22;50653;47.810;13.022;2023-04-16T02:10:16;6.60;99.90
14397;DHT22;50653;47.810;13.022;2023-04-16T02:12:43;6.60;99.90
14397;DHT22;50653;47.810;13.022;2023-04-16T02:15:09;6.60;99.90
14397;DHT22;50653;47.810;13.022;2023-04-16T02:17:35;6.60;99.90
14397;DHT22;50653;47.810;13.022;2023-04-16T02:20:08;6.60;99.90
14397;DHT22;50653;47.810;13.022;2023-04-16T02:22:38;6.50;99.90
14397;DHT22;50653;47.810;13.022;2023-04-16T02:25:05;6.60;99.90
14397;DHT22;50653;47.810;13.022;2023-04-16T02:27:30;6.60;99.90
14397;DHT22;50653;47.810;13.022;2023-04-16T02:30:05;6.70;99.90
14397;DHT22;50653;47.810;13.022;2023-04-16T02:32:33;6.60;99.90
14397;DHT22;50653;47.810;13.022;2023-04-16T02:34:59;6.60;99.90
14397;DHT22;50653;47.810;13.022;2023-04-16T02:37:25;6.60;99.90
14397;DHT22;50653;47.810;13.022;2023-04-16T02:39:51;6.60;99.90
14397;DHT22;50653;47.810;13.022;2023-04-16T02:42:18;6.50;99.90
14397;DHT22;50653;47.810;13.022;2023-04-16T02:44:44;6.60;99.90
14397;DHT22;50653;47.810;13.022;2023-04-16T02:47:10;6.50;99.90
14397;DHT22;50653;47.810;13.022;2023-04-16T02:49:35;6.50;99.90
14397;DHT22;50653;47.810;13.022;2023-04-16T02:52:01;6.50;99.90
14397;DHT22;50653;47.810;13.022;2023-04-16T02:54:27;6.60;99.90
14397;DHT22;50653;47.810;13.022;2023-04-16T02:56:52;6.60;99.90
14397;DHT22;50653;47.810;13.022;2023-04-16T02:59:18;6.40;99.90
14397;DHT22;50653;47.810;13.022;2023-04-16T03:01:44;6.50;99.90
14397;DHT22;50653;47.810;13.022;2023-04-16T03:04:09;6.50;99.90
14397;DHT22;50653;47.810;13.022;2023-04-16T03:06:36;6.50;99.90
14397;DHT22;50653;47.810;13.022;2023-04-16T03:09:01;6.50;99.90
14397;DHT22;50653;47.810;13.022;2023-04-16T03:11:27;6.50;99.90
14397;DHT22;50653;47.810;13.022;2023-04-16T03:13:52;6.40;99.90
14397;DHT22;50653;47.810;13.022;2023-04-16T03:16:18;6.60;99.90
14397;DHT22;50653;47.810;13.022;2023-04-16T03:18:44;6.50;99.90
14397;DHT22;50653;47.810;13.022;2023-04-16T03:21:09;6.50;99.90
14397;DHT22;50653;47.810;13.022;2023-04-16T03:23:36;6.50;99.90
14397;DHT22;50653;47.810;13.022;2023-04-16T03:26:03;6.50;99.90
14397;DHT22;50653;47.810;13.022;2023-04-16T03:28:28;6.40;99.90
14397;DHT22;50653;47.810;13.022;2023-04-16T03:30:54;6.50;99.90
14397;DHT22;50653;47.810;13.022;2023-04-16T03:33:20;6.40;99.90
14397;DHT22;50653;47.810;13.022;2023-04-16T03:35:46;6.50;99.90
14397;DHT22;50653;47.810;13.022;2023-04-16T03:38:12;6.50;99.90
14397;DHT22;50653;47.810;13.022;2023-04-16T03:40:39;6.40;99.90
14397;DHT22;50653;47.810;13.022;2023-04-16T03:43:04;6.40;99.90
14397;DHT22;50653;47.810;13.022;2023-04-16T03:45:30;6.40;99.90
14397;DHT22;50653;47.810;13.022;2023-04-16T03:47:56;6.40;99.90
14397;DHT22;50653;47.810;13.022;2023-04-16T03:50:24;6.50;99.90
14397;DHT22;50653;47.810;13.022;2023-04-16T03:52:50;6.50;99.90
14397;DHT22;50653;47.810;13.022;2023-04-16T03:55:16;6.50;99.90
14397;DHT22;50653;47.810;13.022;2023-04-16T03:57:42;6.40;99.90
14397;DHT22;50653;47.810;13.022;2023-04-16T04:00:11;6.50;99.90
14397;DHT22;50653;47.810;13.022;2023-04-16T04:02:49;6.60;99.90
14397;DHT22;50653;47.810;13.022;2023-04-16T04:05:18;6.50;99.90
14397;DHT22;50653;47.810;13.022;2023-04-16T04:07:44;6.60;99.90
14397;DHT22;50653;47.810;13.022;2023-04-16T04:10:10;6.50;99.90
14397;DHT22;50653;47.810;13.022;2023-04-16T04:12:39;6.50;99.90
14397;DHT22;50653;47.810;13.022;2023-04-16T04:15:05;6.50;99.90
14397;DHT22;50653;47.810;13.022;2023-04-16T04:17:31;6.50;99.90
14397;DHT22;50653;47.810;13.022;2023-04-16T04:19:57;6.50;99.90
14397;DHT22;50653;47.810;13.022;2023-04-16T04:22:23;6.50;99.90
14397;DHT22;50653;47.810;13.022;2023-04-16T04:24:51;6.50;99.90
14397;DHT22;50653;47.810;13.022;2023-04-16T04:27:17;6.50;99.90
14397;DHT22;50653;47.810;13.022;2023-04-16T04:29:43;6.50;99.90
14397;DHT22;50653;47.810;13.022;2023-04-16T04:32:08;6.50;99.90
14397;DHT22;50653;47.810;13.022;2023-04-16T04:34:34;6.50;99.90
14397;DHT22;50653;47.810;13.022;2023-04-16T04:37:01;6.50;99.90
14397;DHT22;50653;47.810;13.022;2023-04-16T04:39:27;6.60;99.90
14397;DHT22;50653;47.810;13.022;2023-04-16T04:41:53;6.60;99.90
14397;DHT22;50653;47.810;13.022;2023-04-16T04:44:19;6.60;99.90
14397;DHT22;50653;47.810;13.022;2023-04-16T04:46:44;6.50;99.90
14397;DHT22;50653;47.810;13.022;2023-04-16T04:49:11;6.60;99.90
14397;DHT22;50653;47.810;13.022;2023-04-16T04:51:36;6.60;99.90
14397;DHT22;50653;47.810;13.022;2023-04-16T04:54:03;6.60;99.90
14397;DHT22;50653;47.810;13.022;2023-04-16T04:56:28;6.60;99.90
14397;DHT22;50653;47.810;13.022;2023-04-16T04:58:54;6.40;99.90
14397;DHT22;50653;47.810;13.022;2023-04-16T05:01:20;6.50;99.90
14397;DHT22;50653;47.810;13.022;2023-04-16T05:03:46;6.50;99.90
14397;DHT22;50653;47.810;13.022;2023-04-16T05:06:12;6.50;99.90
14397;DHT22;50653;47.810;13.022;2023-04-16T05:08:37;6.50;99.90
14397;DHT22;50653;47.810;13.022;2023-04-16T05:11:03;6.60;99.90
14397;DHT22;50653;47.810;13.022;2023-04-16T05:13:29;6.50;99.90
14397;DHT22;50653;47.810;13.022;2023-04-16T05:15:54;6.40;99.90
14397;DHT22;50653;47.810;13.022;2023-04-16T05:18:20;6.50;99.90
14397;DHT22;50653;47.810;13.022;2023-04-16T05:20:46;6.60;99.90
14397;DHT22;50653;47.810;13.022;2023-04-16T05:23:11;6.50;99.90
14397;DHT22;50653;47.810;13.022;2023-04-16T05:25:37;6.50;99.90
14397;DHT22;50653;47.810;13.022;2023-04-16T05:28:03;6.60;99.90
14397;DHT22;50653;47.810;13.022;2023-04-16T05:30:28;6.50;99.90
14397;DHT22;50653;47.810;13.022;2023-04-16T05:32:54;6.60;99.90
14397;DHT22;50653;47.810;13.022;2023-04-16T05:35:20;6.60;99.90
14397;DHT22;50653;47.810;13.022;2023-04-16T05:37:45;6.60;99.90
14397;DHT22;50653;47.810;13.022;2023-04-16T05:40:12;6.50;99.90
14397;DHT22;50653;47.810;13.022;2023-04-16T05:42:38;6.50;99.90
14397;DHT22;50653;47.810;13.022;2023-04-16T05:45:04;6.50;99.90
14397;DHT22;50653;47.810;13.022;2023-04-16T05:47:30;6.60;99.90
14397;DHT22;50653;47.810;13.022;2023-04-16T05:49:56;6.60;99.90
14397;DHT22;50653;47.810;13.022;2023-04-16T05:52:21;6.60;99.90
14397;DHT22;50653;47.810;13.022;2023-04-16T05:54:47;6.60;99.90
14397;DHT22;50653;47.810;13.022;2023-04-16T05:57:13;6.60;99.90
14397;DHT22;50653;47.810;13.022;2023-04-16T05:59:39;6.40;99.90
14397;DHT22;50653;47.810;13.022;2023-04-16T06:02:05;6.30;99.90
14397;DHT22;50653;47.810;13.022;2023-04-16T06:04:31;6.40;99.90
14397;DHT22;50653;47.810;13.022;2023-04-16T06:06:57;6.50;99.90
14397;DHT22;50653;47.810;13.022;2023-04-16T06:09:22;6.60;99.90
14397;DHT22;50653;47.810;13.022;2023-04-16T06:11:49;6.70;99.90
14397;DHT22;50653;47.810;13.022;2023-04-16T06:14:14;6.70;99.90
14397;DHT22;50653;47.810;13.022;2023-04-16T06:16:40;6.50;99.90
14397;DHT22;50653;47.810;13.022;2023-04-16T06:19:06;6.60;99.90
14397;DHT22;50653;47.810;13.022;2023-04-16T06:21:31;6.70;99.90
14397;DHT22;50653;47.810;13.022;2023-04-16T06:23:57;6.50;99.90
14397;DHT22;50653;47.810;13.022;2023-04-16T06:26:23;6.50;99.90
14397;DHT22;50653;47.810;13.022;2023-04-16T06:28:49;6.40;99.90
14397;DHT22;50653;47.810;13.022;2023-04-16T06:31:15;6.40;99.90
14397;DHT22;50653;47.810;13.022;2023-04-16T06:33:40;6.30;99.90
14397;DHT22;50653;47.810;13.022;2023-04-16T06:36:06;6.10;99.90
14397;DHT22;50653;47.810;13.022;2023-04-16T06:38:32;6.20;99.90
14397;DHT22;50653;47.810;13.022;2023-04-16T06:40:57;6.20;99.90
14397;DHT22;50653;47.810;13.022;2023-04-16T06:43:24;6.20;99.90
14397;DHT22;50653;47.810;13.022;2023-04-16T06:45:50;6.20;99.90
14397;DHT22;50653;47.810;13.022;2023-04-16T06:48:15;6.20;99.90
14397;DHT22;50653;47.810;13.022;2023-04-16T06:50:41;6.10;99.90
14397;DHT22;50653;47.810;13.022;2023-04-16T06:53:07;6.00;99.90
14397;DHT22;50653;47.810;13.022;2023-04-16T06:55:32;6.00;99.90
14397;DHT22;50653;47.810;13.022;2023-04-16T06:57:58;6.00;99.90
14397;DHT22;50653;47.810;13.022;2023-04-16T07:00:23;6.10;99.90
14397;DHT22;50653;47.810;13.022;2023-04-16T07:02:49;6.30;99.90
14397;DHT22;50653;47.810;13.022;2023-04-16T07:05:15;6.30;99.90
14397;DHT22;50653;47.810;13.022;2023-04-16T07:07:40;6.40;99.90
14397;DHT22;50653;47.810;13.022;2023-04-16T07:10:06;6.50;99.90
14397;DHT22;50653;47.810;13.022;2023-04-16T07:12:32;6.70;99.90
14397;DHT22;50653;47.810;13.022;2023-04-16T07:14:58;6.80;99.90
14397;DHT22;50653;47.810;13.022;2023-04-16T07:17:23;6.80;99.90
14397;DHT22;50653;47.810;13.022;2023-04-16T07:19:50;6.90;99.90
14397;DHT22;50653;47.810;13.022;2023-04-16T07:22:16;7.00;99.90
14397;DHT22;50653;47.810;13.022;2023-04-16T07:24:41;7.00;99.90
14397;DHT22;50653;47.810;13.022;2023-04-16T07:27:07;7.00;99.90
14397;DHT22;50653;47.810;13.022;2023-04-16T07:29:33;7.00;99.90
14397;DHT22;50653;47.810;13.022;2023-04-16T07:31:58;7.00;99.90
14397;DHT22;50653;47.810;13.022;2023-04-16T07:34:24;6.90;99.90
14397;DHT22;50653;47.810;13.022;2023-04-16T07:36:50;7.00;99.90
14397;DHT22;50653;47.810;13.022;2023-04-16T07:39:15;6.90;99.90
14397;DHT22;50653;47.810;13.022;2023-04-16T07:41:42;6.90;99.90
14397;DHT22;50653;47.810;13.022;2023-04-16T07:44:08;7.00;99.90
14397;DHT22;50653;47.810;13.022;2023-04-16T07:46:33;7.10;99.90
14397;DHT22;50653;47.810;13.022;2023-04-16T07:48:59;7.20;99.90
14397;DHT22;50653;47.810;13.022;2023-04-16T07:51:25;7.20;99.90
14397;DHT22;50653;47.810;13.022;2023-04-16T07:53:51;7.20;99.90
14397;DHT22;50653;47.810;13.022;2023-04-16T07:56:16;7.20;99.90
14397;DHT22;50653;47.810;13.022;2023-04-16T07:58:42;7.20;99.90
14397;DHT22;50653;47.810;13.022;2023-04-16T08:01:08;7.20;99.90
14397;DHT22;50653;47.810;13.022;2023-04-16T08:03:33;7.10;99.90
14397;DHT22;50653;47.810;13.022;2023-04-16T08:05:59;7.20;99.90
14397;DHT22;50653;47.810;13.022;2023-04-16T08:08:25;7.10;99.90
14397;DHT22;50653;47.810;13.022;2023-04-16T08:10:50;7.20;99.90
14397;DHT22;50653;47.810;13.022;2023-04-16T08:13:21;7.20;99.90
14397;DHT22;50653;47.810;13.022;2023-04-16T08:15:47;7.20;99.90
14397;DHT22;50653;47.810;13.022;2023-04-16T08:18:12;7.30;99.90
14397;DHT22;50653;47.810;13.022;2023-04-16T08:20:40;7.30;99.90
14397;DHT22;50653;47.810;13.022;2023-04-16T08:23:06;7.40;99.90
14397;DHT22;50653;47.810;13.022;2023-04-16T08:25:32;7.40;99.90
14397;DHT22;50653;47.810;13.022;2023-04-16T08:27:57;7.40;99.90
14397;DHT22;50653;47.810;13.022;2023-04-16T08:30:23;7.40;99.90
14397;DHT22;50653;47.810;13.022;2023-04-16T08:32:49;7.40;99.90
14397;DHT22;50653;47.810;13.022;2023-04-16T08:35:15;7.40;99.90
14397;DHT22;50653;47.810;13.022;2023-04-16T08:37:41;7.50;99.90
14397;DHT22;50653;47.810;13.022;2023-04-16T08:40:07;7.50;99.90
14397;DHT22;50653;47.810;13.022;2023-04-16T08:42:43;7.50;99.90
14397;DHT22;50653;47.810;13.022;2023-04-16T08:45:14;7.50;99.90
14397;DHT22;50653;47.810;13.022;2023-04-16T08:47:45;7.60;99.90
14397;DHT22;50653;47.810;13.022;2023-04-16T08:50:13;7.60;99.90
14397;DHT22;50653;47.810;13.022;2023-04-16T08:52:48;7.70;99.90
14397;DHT22;50653;47.810;13.022;2023-04-16T08:55:15;7.70;99.90
14397;DHT22;50653;47.810;13.022;2023-04-16T08:57:47;7.70;99.90
14397;DHT22;50653;47.810;13.022;2023-04-16T09:00:15;7.70;99.90
14397;DHT22;50653;47.810;13.022;2023-04-16T09:02:41;7.80;99.90
14397;DHT22;50653;47.810;13.022;2023-04-16T09:05:07;7.80;99.90
14397;DHT22;50653;47.810;13.022;2023-04-16T09:07:34;7.90;99.90
14397;DHT22;50653;47.810;13.022;2023-04-16T09:10:00;7.90;99.90
14397;DHT22;50653;47.810;13.022;2023-04-16T09:12:28;7.90;99.90
14397;DHT22;50653;47.810;13.022;2023-04-16T09:14:55;7.90;99.90
14397;DHT22;50653;47.810;13.022;2023-04-16T09:17:21;7.90;99.90
14397;DHT22;50653;47.810;13.022;2023-04-16T09:19:47;7.80;99.90
14397;DHT22;50653;47.810;13.022;2023-04-16T09:22:13;7.70;99.90
14397;DHT22;50653;47.810;13.022;2023-04-16T09:24:38;7.80;99.90
14397;DHT22;50653;47.810;13.022;2023-04-16T09:27:05;7.70;99.90
14397;DHT22;50653;47.810;13.022;2023-04-16T09:29:33;7.80;99.90
14397;DHT22;50653;47.810;13.022;2023-04-16T09:32:05;7.90;99.90
14397;DHT22;50653;47.810;13.022;2023-04-16T09:34:32;8.00;99.90
14397;DHT22;50653;47.810;13.022;2023-04-16T09:37:17;7.90;99.90
14397;DHT22;50653;47.810;13.022;2023-04-16T09:39:53;8.00;99.90
14397;DHT22;50653;47.810;13.022;2023-04-16T09:42:44;8.10;99.90
14397;DHT22;50653;47.810;13.022;2023-04-16T09:45:10;8.20;99.90
14397;DHT22;50653;47.810;13.022;2023-04-16T09:47:43;8.20;99.90
14397;DHT22;50653;47.810;13.022;2023-04-16T09:50:16;8.10;99.90
14397;DHT22;50653;47.810;13.022;2023-04-16T09:52:44;8.20;99.90
14397;DHT22;50653;47.810;13.022;2023-04-16T09:55:10;8.10;99.90
14397;DHT22;50653;47.810;13.022;2023-04-16T09:57:36;8.20;99.90
14397;DHT22;50653;47.810;13.022;2023-04-16T10:00:07;8.20;99.90
14397;DHT22;50653;47.810;13.022;2023-04-16T10:02:34;8.30;99.90
14397;DHT22;50653;47.810;13.022;2023-04-16T10:05:01;8.40;99.90
14397;DHT22;50653;47.810;13.022;2023-04-16T10:07:27;8.30;99.90
14397;DHT22;50653;47.810;13.022;2023-04-16T10:09:53;8.40;99.90
14397;DHT22;50653;47.810;13.022;2023-04-16T10:12:20;8.20;99.90
14397;DHT22;50653;47.810;13.022;2023-04-16T10:14:46;8.30;99.90
14397;DHT22;50653;47.810;13.022;2023-04-16T10:17:11;8.40;99.90
14397;DHT22;50653;47.810;13.022;2023-04-16T10:19:37;8.40;99.90
14397;DHT22;50653;47.810;13.022;2023-04-16T10:22:03;8.50;99.90
14397;DHT22;50653;47.810;13.022;2023-04-16T10:24:31;8.50;99.90
14397;DHT22;50653;47.810;13.022;2023-04-16T10:26:57;8.60;99.90
14397;DHT22;50653;47.810;13.022;2023-04-16T10:29:24;8.60;99.90
14397;DHT22;50653;47.810;13.022;2023-04-16T10:31:52;8.60;99.90
14397;DHT22;50653;47.810;13.022;2023-04-16T10:34:19;8.70;99.90
14397;DHT22;50653;47.810;13.022;2023-04-16T10:36:50;8.70;99.90
14397;DHT22;50653;47.810;13.022;2023-04-16T10:39:24;8.70;99.90
14397;DHT22;50653;47.810;13.022;2023-04-16T10:42:06;8.80;99.90
14397;DHT22;50653;47.810;13.022;2023-04-16T10:44:32;8.80;99.90
14397;DHT22;50653;47.810;13.022;2023-04-16T10:46:58;8.70;99.90
14397;DHT22;50653;47.810;13.022;2023-04-16T10:49:25;8.60;99.90
14397;DHT22;50653;47.810;13.022;2023-04-16T10:51:59;8.60;99.90
14397;DHT22;50653;47.810;13.022;2023-04-16T10:54:31;8.60;99.90
14397;DHT22;50653;47.810;13.022;2023-04-16T10:56:58;8.50;99.90
14397;DHT22;50653;47.810;13.022;2023-04-16T10:59:30;8.50;99.90
14397;DHT22;50653;47.810;13.022;2023-04-16T11:01:58;8.50;99.90
14397;DHT22;50653;47.810;13.022;2023-04-16T11:04:27;8.60;99.90
14397;DHT22;50653;47.810;13.022;2023-04-16T11:09:56;8.60;99.90
14397;DHT22;50653;47.810;13.022;2023-04-16T11:12:43;8.60;99.90
14397;DHT22;50653;47.810;13.022;2023-04-16T11:15:16;8.60;99.90
14397;DHT22;50653;47.810;13.022;2023-04-16T11:17:48;8.60;99.90
14397;DHT22;50653;47.810;13.022;2023-04-16T11:20:16;8.60;99.90
14397;DHT22;50653;47.810;13.022;2023-04-16T11:22:42;8.50;99.90
14397;DHT22;50653;47.810;13.022;2023-04-16T11:25:10;8.60;99.90
14397;DHT22;50653;47.810;13.022;2023-04-16T11:27:36;8.70;99.90
14397;DHT22;50653;47.810;13.022;2023-04-16T11:30:03;8.70;99.90
14397;DHT22;50653;47.810;13.022;2023-04-16T11:32:31;8.80;99.90
14397;DHT22;50653;47.810;13.022;2023-04-16T11:34:57;8.90;99.90
14397;DHT22;50653;47.810;13.022;2023-04-16T11:37:35;9.10;99.90
14397;DHT22;50653;47.810;13.022;2023-04-16T11:40:02;9.10;99.90
14397;DHT22;50653;47.810;13.022;2023-04-16T11:42:32;9.20;99.90
14397;DHT22;50653;47.810;13.022;2023-04-16T11:44:58;9.30;99.90
14397;DHT22;50653;47.810;13.022;2023-04-16T11:47:29;9.30;99.90
14397;DHT22;50653;47.810;13.022;2023-04-16T11:49:55;9.40;99.90
14397;DHT22;50653;47.810;13.022;2023-04-16T11:52:32;9.40;99.90
14397;DHT22;50653;47.810;13.022;2023-04-16T11:54:58;9.50;99.90
14397;DHT22;50653;47.810;13.022;2023-04-16T11:57:28;9.50;99.90
14397;DHT22;50653;47.810;13.022;2023-04-16T11:59:55;9.50;99.90
14397;DHT22;50653;47.810;13.022;2023-04-16T12:02:40;9.40;99.90
14397;DHT22;50653;47.810;13.022;2023-04-16T12:07:51;9.50;99.90
14397;DHT22;50653;47.810;13.022;2023-04-16T12:10:17;9.40;99.90
14397;DHT22;50653;47.810;13.022;2023-04-16T12:12:42;9.50;99.90
14397;DHT22;50653;47.810;13.022;2023-04-16T12:15:08;9.40;99.90
14397;DHT22;50653;47.810;13.022;2023-04-16T12:17:35;9.50;99.90
14397;DHT22;50653;47.810;13.022;2023-04-16T12:20:09;9.50;99.90
14397;DHT22;50653;47.810;13.022;2023-04-16T12:22:36;9.50;99.90
14397;DHT22;50653;47.810;13.022;2023-04-16T12:25:11;9.60;99.90
14397;DHT22;50653;47.810;13.022;2023-04-16T12:27:44;9.70;99.90
14397;DHT22;50653;47.810;13.022;2023-04-16T12:30:12;9.80;99.90
14397;DHT22;50653;47.810;13.022;2023-04-16T12:32:40;9.80;99.90
14397;DHT22;50653;47.810;13.022;2023-04-16T12:35:06;9.70;99.90
14397;DHT22;50653;47.810;13.022;2023-04-16T12:37:32;9.80;99.90
14397;DHT22;50653;47.810;13.022;2023-04-16T12:39:59;9.70;99.90
14397;DHT22;50653;47.810;13.022;2023-04-16T12:42:25;9.80;99.90
14397;DHT22;50653;47.810;13.022;2023-04-16T12:44:51;9.90;99.90
14397;DHT22;50653;47.810;13.022;2023-04-16T12:47:16;10.00;99.90
14397;DHT22;50653;47.810;13.022;2023-04-16T12:49:42;10.10;99.90
14397;DHT22;50653;47.810;13.022;2023-04-16T12:52:09;10.00;99.90
14397;DHT22;50653;47.810;13.022;2023-04-16T12:54:35;10.00;99.90
14397;DHT22;50653;47.810;13.022;2023-04-16T12:57:00;10.00;99.90
14397;DHT22;50653;47.810;13.022;2023-04-16T12:59:26;10.00;99.90
14397;DHT22;50653;47.810;13.022;2023-04-16T13:01:52;9.90;99.90
14397;DHT22;50653;47.810;13.022;2023-04-16T13:04:17;9.80;99.90
14397;DHT22;50653;47.810;13.022;2023-04-16T13:06:43;9.80;99.90
14397;DHT22;50653;47.810;13.022;2023-04-16T13:09:10;9.90;99.90
14397;DHT22;50653;47.810;13.022;2023-04-16T13:11:36;10.00;99.90
14397;DHT22;50653;47.810;13.022;2023-04-16T13:14:02;10.00;99.90
14397;DHT22;50653;47.810;13.022;2023-04-16T13:16:27;10.10;99.90
14397;DHT22;50653;47.810;13.022;2023-04-16T13:18:54;10.00;99.90
14397;DHT22;50653;47.810;13.022;2023-04-16T13:21:20;10.10;99.90
14397;DHT22;50653;47.810;13.022;2023-04-16T13:23:45;10.20;99.90
14397;DHT22;50653;47.810;13.022;2023-04-16T13:26:11;10.10;99.90
14397;DHT22;50653;47.810;13.022;2023-04-16T13:28:39;10.20;99.90
14397;DHT22;50653;47.810;13.022;2023-04-16T13:31:05;10.30;99.90
14397;DHT22;50653;47.810;13.022;2023-04-16T13:33:30;10.50;99.90
14397;DHT22;50653;47.810;13.022;2023-04-16T13:35:56;10.50;99.90
14397;DHT22;50653;47.810;13.022;2023-04-16T13:38:22;10.60;99.90
14397;DHT22;50653;47.810;13.022;2023-04-16T13:40:47;10.70;99.90
14397;DHT22;50653;47.810;13.022;2023-04-16T13:43:13;10.70;99.90
14397;DHT22;50653;47.810;13.022;2023-04-16T13:45:40;10.80;99.90
14397;DHT22;50653;47.810;13.022;2023-04-16T13:48:06;10.80;99.90
14397;DHT22;50653;47.810;13.022;2023-04-16T13:50:32;10.80;99.90
14397;DHT22;50653;47.810;13.022;2023-04-16T13:52:58;11.10;99.90
14397;DHT22;50653;47.810;13.022;2023-04-16T13:55:23;11.20;99.90
14397;DHT22;50653;47.810;13.022;2023-04-16T13:57:49;11.20;99.90
14397;DHT22;50653;47.810;13.022;2023-04-16T14:00:17;11.30;99.90
14397;DHT22;50653;47.810;13.022;2023-04-16T14:02:42;11.40;99.90
14397;DHT22;50653;47.810;13.022;2023-04-16T14:05:10;11.40;99.90
14397;DHT22;50653;47.810;13.022;2023-04-16T14:07:36;11.30;99.90
14397;DHT22;50653;47.810;13.022;2023-04-16T14:10:02;11.30;99.90
14397;DHT22;50653;47.810;13.022;2023-04-16T14:12:28;11.20;99.90
14397;DHT22;50653;47.810;13.022;2023-04-16T14:14:53;11.20;99.90
14397;DHT22;50653;47.810;13.022;2023-04-16T14:17:19;11.10;99.90
14397;DHT22;50653;47.810;13.022;2023-04-16T14:19:45;11.00;99.90
14397;DHT22;50653;47.810;13.022;2023-04-16T14:22:11;11.00;99.90
14397;DHT22;50653;47.810;13.022;2023-04-16T14:24:36;11.10;99.90
14397;DHT22;50653;47.810;13.022;2023-04-16T14:27:02;11.00;99.90
14397;DHT22;50653;47.810;13.022;2023-04-16T14:29:28;11.00;99.90
14397;DHT22;50653;47.810;13.022;2023-04-16T14:31:53;10.90;99.90
14397;DHT22;50653;47.810;13.022;2023-04-16T14:34:19;10.60;99.90
14397;DHT22;50653;47.810;13.022;2023-04-16T14:36:45;10.50;99.90
14397;DHT22;50653;47.810;13.022;2023-04-16T14:39:10;10.60;99.90
14397;DHT22;50653;47.810;13.022;2023-04-16T14:41:36;10.60;99.90
14397;DHT22;50653;47.810;13.022;2023-04-16T14:44:02;10.60;99.90
14397;DHT22;50653;47.810;13.022;2023-04-16T14:46:30;10.70;99.90
14397;DHT22;50653;47.810;13.022;2023-04-16T14:48:58;10.60;99.90
14397;DHT22;50653;47.810;13.022;2023-04-16T14:51:23;10.70;99.90
14397;DHT22;50653;47.810;13.022;2023-04-16T14:53:50;10.60;99.90
14397;DHT22;50653;47.810;13.022;2023-04-16T14:56:16;10.50;99.90
14397;DHT22;50653;47.810;13.022;2023-04-16T14:58:42;10.60;99.90
14397;DHT22;50653;47.810;13.022;2023-04-16T15:01:07;10.50;99.90
14397;DHT22;50653;47.810;13.022;2023-04-16T15:03:33;10.60;99.90
14397;DHT22;50653;47.810;13.022;2023-04-16T15:05:59;10.60;99.90
14397;DHT22;50653;47.810;13.022;2023-04-16T15:08:25;10.70;99.90
14397;DHT22;50653;47.810;13.022;2023-04-16T15:10:51;10.60;99.90
14397;DHT22;50653;47.810;13.022;2023-04-16T15:13:17;10.70;99.90
14397;DHT22;50653;47.810;13.022;2023-04-16T15:15:42;10.80;99.90
14397;DHT22;50653;47.810;13.022;2023-04-16T15:18:08;10.90;99.90
14397;DHT22;50653;47.810;13.022;2023-04-16T15:20:34;11.00;99.90
14397;DHT22;50653;47.810;13.022;2023-04-16T15:23:00;11.10;99.90
14397;DHT22;50653;47.810;13.022;2023-04-16T15:25:26;11.00;99.90
14397;DHT22;50653;47.810;13.022;2023-04-16T15:27:51;11.00;99.90
14397;DHT22;50653;47.810;13.022;2023-04-16T15:30:17;10.90;99.90